Time;durP1;ratioP1;P1;durP2;ratioP2;P2;SDS_P1;SDS_P2;PMS_P1;PMS_P2;Temp;Humidity;BMP_temperature;BMP_pressure;BME280_temperature;BME280_humidity;BME280_pressure;Samples;Min_cycle;Max_cycle;Signal;HPM_P1;HPM_P2
2023/06/05 00:02:19;;;;;;;0.50;0.50;;;;;;;;;;5091385;28;20636;-59
2023/06/05 00:04:47;;;;;;;0.38;0.38;;;;;;;;;;5086698;28;20259;-59
2023/06/05 00:07:15;;;;;;;0.80;0.80;;;;;;;;;;5081737;28;20210;-59
2023/06/05 00:09:42;;;;;;;0.32;0.32;;;;;;;;;;5088442;28;20210;-59
2023/06/05 00:12:10;;;;;;;0.38;0.38;;;;;;;;;;5073795;28;20222;-59
2023/06/05 00:14:37;;;;;;;0.40;0.40;;;;;;;;;;5075108;28;20203;-59
2023/06/05 00:17:07;;;;;;;0.70;0.70;;;;;;;;;;5085772;28;20259;-59
2023/06/05 00:19:34;;;;;;;0.70;0.70;;;;;;;;;;5071617;28;20381;-59
2023/06/05 00:22:01;;;;;;;0.50;0.50;;;;;;;;;;5070427;28;20452;-59
2023/06/05 00:24:30;;;;;;;0.65;0.57;;;;;;;;;;5079474;28;20290;-59
2023/06/05 00:26:57;;;;;;;0.50;0.50;;;;;;;;;;5085359;28;20322;-59
2023/06/05 00:29:24;;;;;;;0.60;0.60;;;;;;;;;;5081353;28;20267;-59
2023/06/05 00:31:51;;;;;;;0.43;0.43;;;;;;;;;;5077701;28;20218;-59
2023/06/05 00:34:18;;;;;;;0.60;0.60;;;;;;;;;;5081782;28;20611;-59
2023/06/05 00:36:45;;;;;;;0.60;0.60;;;;;;;;;;5078291;28;20213;-59
2023/06/05 00:39:12;;;;;;;0.52;0.52;;;;;;;;;;5088808;28;20203;-59
2023/06/05 00:41:41;;;;;;;0.65;0.65;;;;;;;;;;5081395;28;20313;-59
2023/06/05 00:44:08;;;;;;;0.40;0.40;;;;;;;;;;5080819;28;20227;-59
2023/06/05 00:46:35;;;;;;;0.50;0.50;;;;;;;;;;5070195;28;20211;-59
2023/06/05 00:49:02;;;;;;;0.43;0.43;;;;;;;;;;5069457;28;20219;-59
2023/06/05 00:51:30;;;;;;;0.47;0.47;;;;;;;;;;5074820;28;20222;-59
2023/06/05 00:53:57;;;;;;;0.40;0.40;;;;;;;;;;5088828;28;20259;-59
2023/06/05 00:56:24;;;;;;;0.45;0.45;;;;;;;;;;5089791;28;20259;-59
2023/06/05 00:58:54;;;;;;;0.60;0.60;;;;;;;;;;5086113;28;20713;-59
2023/06/05 01:01:24;;;;;;;0.77;0.57;;;;;;;;;;5085871;28;20202;-59
2023/06/05 01:03:52;;;;;;;0.60;0.60;;;;;;;;;;5087550;28;20210;-59
2023/06/05 01:06:19;;;;;;;0.52;0.52;;;;;;;;;;5072532;28;20215;-58
2023/06/05 01:08:48;;;;;;;0.50;0.50;;;;;;;;;;5081928;28;20210;-60
2023/06/05 01:11:17;;;;;;;0.57;0.57;;;;;;;;;;5088283;28;20217;-59
2023/06/05 01:13:48;;;;;;;0.65;0.65;;;;;;;;;;5086439;28;20451;-60
2023/06/05 01:16:18;;;;;;;2.38;0.50;;;;;;;;;;5088116;28;20245;-59
2023/06/05 01:18:46;;;;;;;0.40;0.40;;;;;;;;;;5071248;28;20211;-59
2023/06/05 01:21:16;;;;;;;0.98;0.60;;;;;;;;;;5069510;28;20219;-59
2023/06/05 01:23:45;;;;;;;0.50;0.50;;;;;;;;;;5070456;28;20202;-59
2023/06/05 01:26:15;;;;;;;0.38;0.38;;;;;;;;;;5083428;28;20208;-59
2023/06/05 01:28:44;;;;;;;0.47;0.47;;;;;;;;;;5088793;28;20198;-59
2023/06/05 01:31:15;;;;;;;0.50;0.50;;;;;;;;;;5085329;28;20194;-59
2023/06/05 01:33:49;;;;;;;0.47;0.47;;;;;;;;;;5087189;28;20210;-59
2023/06/05 01:36:16;;;;;;;0.40;0.40;;;;;;;;;;5085471;28;20206;-59
2023/06/05 01:38:45;;;;;;;0.68;0.40;;;;;;;;;;5074341;28;20195;-59
2023/06/05 01:41:14;;;;;;;0.40;0.40;;;;;;;;;;5081111;28;20203;-59
2023/06/05 01:43:41;;;;;;;0.50;0.50;;;;;;;;;;5087518;28;20226;-59
2023/06/05 01:46:08;;;;;;;0.40;0.40;;;;;;;;;;5078469;28;20210;-59
2023/06/05 01:48:38;;;;;;;0.50;0.50;;;;;;;;;;5068801;28;20268;-59
2023/06/05 01:51:05;;;;;;;0.77;0.60;;;;;;;;;;5069006;28;20268;-59
2023/06/05 01:53:32;;;;;;;0.52;0.52;;;;;;;;;;5088681;28;20264;-59
2023/06/05 01:56:03;;;;;;;0.45;0.45;;;;;;;;;;5080729;28;20718;-59
2023/06/05 01:58:30;;;;;;;0.50;0.50;;;;;;;;;;5072986;28;20215;-60
2023/06/05 02:00:57;;;;;;;0.43;0.43;;;;;;;;;;5081551;28;20205;-59
2023/06/05 02:03:24;;;;;;;0.50;0.50;;;;;;;;;;5075198;28;20233;-58
2023/06/05 02:05:52;;;;;;;0.82;0.52;;;;;;;;;;5076043;28;20298;-59
2023/06/05 02:08:22;;;;;;;0.75;0.55;;;;;;;;;;5078797;28;20225;-59
2023/06/05 02:10:49;;;;;;;0.40;0.40;;;;;;;;;;5078798;28;20270;-59
2023/06/05 02:13:19;;;;;;;0.60;0.60;;;;;;;;;;5070078;28;20329;-58
2023/06/05 02:15:46;;;;;;;0.60;0.60;;;;;;;;;;5075954;28;20253;-59
2023/06/05 02:18:13;;;;;;;0.60;0.60;;;;;;;;;;5084440;28;20248;-59
2023/06/05 02:20:42;;;;;;;0.40;0.40;;;;;;;;;;5085295;28;20222;-59
2023/06/05 02:23:09;;;;;;;1.02;0.88;;;;;;;;;;5068678;28;20207;-58
2023/06/05 02:25:36;;;;;;;0.60;0.55;;;;;;;;;;5069020;28;20206;-59
2023/06/05 02:28:03;;;;;;;0.63;0.60;;;;;;;;;;5070751;28;20218;-59
2023/06/05 02:30:32;;;;;;;0.52;0.52;;;;;;;;;;5084574;28;20665;-59
2023/06/05 02:33:01;;;;;;;0.50;0.50;;;;;;;;;;5073728;28;20283;-59
2023/06/05 02:35:29;;;;;;;0.40;0.40;;;;;;;;;;5084763;28;20673;-60
2023/06/05 02:37:56;;;;;;;1.20;0.52;;;;;;;;;;5075953;28;20207;-59
2023/06/05 02:40:23;;;;;;;0.45;0.40;;;;;;;;;;5092802;28;21004;-59
2023/06/05 02:42:50;;;;;;;0.80;0.60;;;;;;;;;;5069867;28;20249;-59
2023/06/05 02:45:17;;;;;;;0.40;0.40;;;;;;;;;;5071109;28;20293;-59
2023/06/05 02:47:45;;;;;;;1.02;0.50;;;;;;;;;;5069287;28;20207;-59
2023/06/05 02:50:13;;;;;;;1.00;0.40;;;;;;;;;;5084715;28;20210;-59
2023/06/05 02:52:40;;;;;;;0.50;0.50;;;;;;;;;;5073215;28;20325;-59
2023/06/05 02:55:08;;;;;;;1.48;0.50;;;;;;;;;;5087508;28;20214;-59
2023/06/05 02:57:40;;;;;;;0.65;0.65;;;;;;;;;;5070122;28;20699;-59
2023/06/05 03:00:08;;;;;;;0.40;0.40;;;;;;;;;;5081594;28;20206;-59
2023/06/05 03:02:36;;;;;;;0.43;0.43;;;;;;;;;;5070491;28;20263;-59
2023/06/05 03:05:06;;;;;;;2.85;0.60;;;;;;;;;;5079744;28;20210;-59
2023/06/05 03:07:34;;;;;;;1.27;0.47;;;;;;;;;;5067866;28;20665;-59
2023/06/05 03:10:01;;;;;;;0.50;0.50;;;;;;;;;;5077856;28;20690;-59
2023/06/05 03:12:28;;;;;;;1.10;0.40;;;;;;;;;;5083508;28;20233;-59
2023/06/05 03:14:55;;;;;;;0.40;0.40;;;;;;;;;;5091248;28;20626;-59
2023/06/05 03:17:24;;;;;;;0.80;0.57;;;;;;;;;;5077603;28;21590;-59
2023/06/05 03:19:51;;;;;;;0.50;0.50;;;;;;;;;;5082402;28;20210;-59
2023/06/05 03:22:20;;;;;;;0.50;0.50;;;;;;;;;;5074604;28;20544;-59
2023/06/05 03:24:47;;;;;;;0.43;0.43;;;;;;;;;;5071772;28;20218;-58
2023/06/05 03:27:14;;;;;;;0.47;0.43;;;;;;;;;;5080452;28;20943;-58
2023/06/05 03:29:41;;;;;;;0.40;0.40;;;;;;;;;;5077997;28;20205;-59
2023/06/05 03:32:08;;;;;;;0.40;0.40;;;;;;;;;;5080568;28;20761;-59
2023/06/05 03:34:36;;;;;;;0.50;0.50;;;;;;;;;;5091583;28;20210;-59
2023/06/05 03:37:03;;;;;;;0.73;0.73;;;;;;;;;;5090702;28;20297;-59
2023/06/05 03:39:31;;;;;;;0.50;0.50;;;;;;;;;;5091573;28;20202;-59
2023/06/05 03:42:00;;;;;;;0.47;0.47;;;;;;;;;;5100996;28;20249;-59
2023/06/05 03:44:27;;;;;;;0.40;0.40;;;;;;;;;;5091641;28;20313;-60
2023/06/05 03:46:55;;;;;;;0.50;0.50;;;;;;;;;;5085455;28;20207;-58
2023/06/05 03:49:22;;;;;;;0.30;0.30;;;;;;;;;;5071419;28;20207;-59
2023/06/05 03:51:49;;;;;;;1.10;0.60;;;;;;;;;;5087982;28;20316;-59
2023/06/05 03:54:17;;;;;;;0.40;0.40;;;;;;;;;;5072893;28;22239;-59
2023/06/05 03:56:49;;;;;;;0.30;0.30;;;;;;;;;;5090099;28;20234;-60
2023/06/05 03:59:21;;;;;;;0.60;0.60;;;;;;;;;;5082582;28;20211;-59
2023/06/05 04:01:48;;;;;;;0.52;0.52;;;;;;;;;;5087787;28;20211;-59
2023/06/05 04:04:15;;;;;;;0.68;0.60;;;;;;;;;;5090228;28;20206;-59
2023/06/05 04:06:43;;;;;;;0.50;0.50;;;;;;;;;;5090757;28;20206;-59
2023/06/05 04:09:12;;;;;;;0.38;0.38;;;;;;;;;;5090478;28;20230;-60
2023/06/05 04:11:39;;;;;;;0.52;0.52;;;;;;;;;;5087786;28;20251;-62
2023/06/05 04:14:07;;;;;;;0.68;0.68;;;;;;;;;;5088147;28;20226;-62
2023/06/05 04:16:38;;;;;;;0.55;0.55;;;;;;;;;;5074966;28;20716;-62
2023/06/05 04:19:06;;;;;;;0.77;0.40;;;;;;;;;;5070483;28;20306;-63
2023/06/05 04:21:34;;;;;;;0.40;0.40;;;;;;;;;;5079410;28;20317;-62
2023/06/05 04:24:01;;;;;;;0.57;0.57;;;;;;;;;;5085873;28;20210;-63
2023/06/05 04:26:28;;;;;;;8.20;0.90;;;;;;;;;;5085443;28;20249;-63
2023/06/05 04:28:56;;;;;;;0.50;0.50;;;;;;;;;;5090126;28;20604;-62
2023/06/05 04:31:25;;;;;;;0.40;0.40;;;;;;;;;;5085217;28;20210;-62
2023/06/05 04:33:52;;;;;;;0.60;0.60;;;;;;;;;;5089459;28;20238;-62
2023/06/05 04:36:20;;;;;;;0.70;0.70;;;;;;;;;;5089740;28;20241;-63
2023/06/05 04:38:47;;;;;;;0.70;0.55;;;;;;;;;;5083117;28;20255;-63
2023/06/05 04:41:14;;;;;;;0.47;0.40;;;;;;;;;;5088193;28;20217;-63
2023/06/05 04:43:42;;;;;;;0.55;0.55;;;;;;;;;;5070863;28;20231;-62
2023/06/05 04:46:09;;;;;;;0.50;0.50;;;;;;;;;;5086538;28;20799;-62
2023/06/05 04:48:37;;;;;;;0.40;0.40;;;;;;;;;;5090341;28;20221;-63
2023/06/05 04:51:04;;;;;;;2.30;0.60;;;;;;;;;;5088810;28;20213;-63
2023/06/05 04:53:32;;;;;;;0.52;0.50;;;;;;;;;;5090736;28;20628;-62
2023/06/05 04:56:00;;;;;;;0.60;0.60;;;;;;;;;;5087427;28;20591;-63
2023/06/05 04:58:34;;;;;;;0.60;0.55;;;;;;;;;;5078930;28;20210;-63
2023/06/05 05:01:04;;;;;;;2.08;0.70;;;;;;;;;;5080116;28;20207;-63
2023/06/05 05:03:32;;;;;;;0.70;0.70;;;;;;;;;;5082022;28;20221;-63
2023/06/05 05:06:01;;;;;;;1.13;0.45;;;;;;;;;;5067553;28;20211;-63
2023/06/05 05:08:28;;;;;;;0.70;0.70;;;;;;;;;;5077453;28;20210;-65
2023/06/05 05:10:55;;;;;;;0.63;0.63;;;;;;;;;;5082799;28;20255;-63
2023/06/05 05:13:22;;;;;;;0.57;0.52;;;;;;;;;;5071271;28;20219;-60
2023/06/05 05:15:52;;;;;;;3.35;0.88;;;;;;;;;;5072832;28;20588;-60
2023/06/05 05:18:19;;;;;;;0.60;0.60;;;;;;;;;;5073590;28;20203;-60
2023/06/05 05:20:47;;;;;;;0.60;0.60;;;;;;;;;;5079731;28;20226;-59
2023/06/05 05:23:15;;;;;;;0.50;0.50;;;;;;;;;;5074432;28;20202;-60
2023/06/05 05:25:42;;;;;;;1.25;0.70;;;;;;;;;;5074467;28;20198;-59
2023/06/05 05:28:09;;;;;;;0.75;0.75;;;;;;;;;;5074075;28;20211;-60
2023/06/05 05:30:36;;;;;;;2.30;0.70;;;;;;;;;;5081050;28;20404;-60
2023/06/05 05:33:04;;;;;;;0.70;0.70;;;;;;;;;;5078010;28;20226;-60
2023/06/05 05:35:31;;;;;;;0.80;0.80;;;;;;;;;;5078954;28;20287;-60
2023/06/05 05:37:58;;;;;;;2.67;0.80;;;;;;;;;;5071328;28;20234;-59
2023/06/05 05:40:26;;;;;;;1.30;0.90;;;;;;;;;;5085063;28;20214;-59
2023/06/05 05:42:54;;;;;;;1.25;0.80;;;;;;;;;;5072331;28;20290;-59
2023/06/05 05:45:21;;;;;;;4.22;1.00;;;;;;;;;;5086989;28;20202;-59
2023/06/05 05:47:48;;;;;;;0.60;0.60;;;;;;;;;;5069209;28;20798;-59
2023/06/05 05:50:15;;;;;;;0.63;0.63;;;;;;;;;;5069601;28;20361;-60
2023/06/05 05:52:42;;;;;;;0.60;0.60;;;;;;;;;;5086623;28;20587;-59
2023/06/05 05:55:10;;;;;;;1.65;0.70;;;;;;;;;;5087248;28;20206;-59
2023/06/05 05:57:39;;;;;;;0.80;0.80;;;;;;;;;;5088244;28;20441;-60
2023/06/05 06:00:09;;;;;;;0.45;0.45;;;;;;;;;;5087493;28;20612;-58
2023/06/05 06:02:36;;;;;;;1.05;0.70;;;;;;;;;;5087759;28;20313;-58
2023/06/05 06:05:04;;;;;;;0.70;0.70;;;;;;;;;;5087332;28;20271;-60
2023/06/05 06:07:32;;;;;;;0.60;0.60;;;;;;;;;;5087465;28;20217;-59
2023/06/05 06:09:59;;;;;;;0.50;0.50;;;;;;;;;;5087724;28;20305;-59
2023/06/05 06:12:27;;;;;;;0.57;0.57;;;;;;;;;;5087732;28;20210;-59
2023/06/05 06:14:56;;;;;;;0.60;0.60;;;;;;;;;;5087505;28;20780;-59
2023/06/05 06:17:23;;;;;;;0.73;0.60;;;;;;;;;;5087415;28;20665;-60
2023/06/05 06:19:51;;;;;;;0.55;0.55;;;;;;;;;;5087444;28;20211;-60
2023/06/05 06:22:18;;;;;;;0.70;0.60;;;;;;;;;;5087660;28;20305;-60
2023/06/05 06:24:45;;;;;;;0.60;0.60;;;;;;;;;;5087625;28;20202;-60
2023/06/05 06:27:12;;;;;;;0.60;0.60;;;;;;;;;;5087740;28;20206;-60
2023/06/05 06:29:39;;;;;;;0.70;0.70;;;;;;;;;;5087566;28;20376;-60
2023/06/05 06:32:08;;;;;;;0.57;0.57;;;;;;;;;;5087198;28;20242;-60
2023/06/05 06:34:35;;;;;;;1.73;0.63;;;;;;;;;;5086874;28;20230;-60
2023/06/05 06:37:03;;;;;;;0.57;0.57;;;;;;;;;;5087164;28;20213;-60
2023/06/05 06:39:31;;;;;;;0.60;0.60;;;;;;;;;;5087832;28;20607;-60
2023/06/05 06:41:58;;;;;;;0.52;0.52;;;;;;;;;;5098428;28;20224;-60
2023/06/05 06:44:25;;;;;;;0.63;0.63;;;;;;;;;;5087453;28;20203;-60
2023/06/05 06:46:53;;;;;;;0.50;0.50;;;;;;;;;;5087054;28;20214;-60
2023/06/05 06:49:21;;;;;;;1.05;0.70;;;;;;;;;;5087315;28;20322;-60
2023/06/05 06:51:48;;;;;;;0.73;0.73;;;;;;;;;;5087142;28;20692;-60
2023/06/05 06:54:16;;;;;;;0.50;0.50;;;;;;;;;;5087116;28;20233;-60
2023/06/05 06:56:44;;;;;;;0.60;0.60;;;;;;;;;;5087235;28;20218;-60
2023/06/05 06:59:14;;;;;;;2.70;0.63;;;;;;;;;;5086831;28;20672;-60
2023/06/05 07:01:45;;;;;;;0.40;0.40;;;;;;;;;;5086703;28;20667;-60
2023/06/05 07:04:16;;;;;;;0.63;0.63;;;;;;;;;;5086855;28;20206;-60
2023/06/05 07:06:45;;;;;;;0.60;0.60;;;;;;;;;;5086746;28;20312;-60
2023/06/05 07:09:12;;;;;;;0.60;0.60;;;;;;;;;;5086795;28;20278;-60
2023/06/05 07:11:39;;;;;;;0.52;0.52;;;;;;;;;;5098687;28;20218;-60
2023/06/05 07:14:07;;;;;;;0.68;0.68;;;;;;;;;;5086494;28;20673;-60
2023/06/05 07:16:34;;;;;;;0.70;0.70;;;;;;;;;;5087254;28;20210;-60
2023/06/05 07:19:01;;;;;;;0.70;0.70;;;;;;;;;;5086890;28;20206;-60
2023/06/05 07:21:28;;;;;;;0.60;0.60;;;;;;;;;;5086388;28;20254;-60
2023/06/05 07:23:57;;;;;;;0.40;0.40;;;;;;;;;;5086879;28;20202;-60
2023/06/05 07:26:24;;;;;;;1.27;0.60;;;;;;;;;;5086839;28;20293;-60
2023/06/05 07:28:51;;;;;;;0.60;0.60;;;;;;;;;;5087016;28;20203;-60
2023/06/05 07:31:18;;;;;;;0.70;0.70;;;;;;;;;;5086805;28;20214;-60
2023/06/05 07:33:45;;;;;;;0.63;0.63;;;;;;;;;;5086324;28;20719;-60
2023/06/05 07:36:12;;;;;;;0.68;0.68;;;;;;;;;;5086165;28;20214;-60
2023/06/05 07:38:40;;;;;;;0.65;0.65;;;;;;;;;;5086450;28;20206;-60
2023/06/05 07:41:10;;;;;;;0.70;0.70;;;;;;;;;;5098564;28;20305;-60
2023/06/05 07:43:39;;;;;;;1.10;0.80;;;;;;;;;;5086321;28;20643;-60
2023/06/05 07:46:08;;;;;;;0.70;0.70;;;;;;;;;;5086379;28;20206;-60
2023/06/05 07:48:35;;;;;;;0.50;0.50;;;;;;;;;;5086534;28;20304;-60
2023/06/05 07:51:02;;;;;;;0.60;0.60;;;;;;;;;;5086380;28;20510;-60
2023/06/05 07:53:29;;;;;;;0.80;0.50;;;;;;;;;;5086609;28;20226;-60
2023/06/05 07:55:57;;;;;;;0.80;0.68;;;;;;;;;;5086898;28;20215;-60
2023/06/05 07:58:27;;;;;;;0.90;0.80;;;;;;;;;;5088724;28;20202;-60
2023/06/05 08:00:56;;;;;;;0.50;0.50;;;;;;;;;;5090318;28;20689;-60
2023/06/05 08:03:24;;;;;;;0.70;0.70;;;;;;;;;;5090027;28;20210;-60
2023/06/05 08:05:51;;;;;;;3.40;0.60;;;;;;;;;;5089606;28;20223;-60
2023/06/05 08:08:18;;;;;;;0.70;0.70;;;;;;;;;;5090006;28;20226;-60
2023/06/05 08:10:47;;;;;;;2.90;0.70;;;;;;;;;;5100973;28;20217;-60
2023/06/05 08:13:14;;;;;;;0.88;0.80;;;;;;;;;;5090317;28;20218;-60
2023/06/05 08:15:43;;;;;;;2.42;1.00;;;;;;;;;;5090058;28;20210;-60
2023/06/05 08:18:10;;;;;;;0.70;0.60;;;;;;;;;;5089889;28;20217;-60
2023/06/05 08:20:37;;;;;;;1.38;0.60;;;;;;;;;;5089575;28;20260;-60
2023/06/05 08:23:05;;;;;;;0.70;0.70;;;;;;;;;;5090031;28;20210;-60
2023/06/05 08:25:32;;;;;;;1.77;0.80;;;;;;;;;;5090124;28;20209;-60
2023/06/05 08:28:00;;;;;;;1.05;0.57;;;;;;;;;;5089797;28;20510;-60
2023/06/05 08:30:27;;;;;;;0.45;0.45;;;;;;;;;;5089943;28;20206;-61
2023/06/05 08:32:55;;;;;;;0.73;0.73;;;;;;;;;;5089640;28;20202;-60
2023/06/05 08:35:22;;;;;;;0.65;0.65;;;;;;;;;;5088959;28;20275;-60
2023/06/05 08:37:49;;;;;;;0.70;0.70;;;;;;;;;;5089508;28;20213;-60
2023/06/05 08:40:18;;;;;;;1.05;0.80;;;;;;;;;;5096674;28;20209;-60
2023/06/05 08:42:45;;;;;;;0.73;0.73;;;;;;;;;;5094041;28;20290;-60
2023/06/05 08:45:12;;;;;;;0.55;0.55;;;;;;;;;;5089444;28;20203;-60
2023/06/05 08:47:41;;;;;;;0.85;0.85;;;;;;;;;;5089717;28;20226;-60
2023/06/05 08:50:10;;;;;;;0.73;0.73;;;;;;;;;;5089150;28;20585;-60
2023/06/05 08:52:39;;;;;;;1.10;0.88;;;;;;;;;;5089535;28;20202;-61
2023/06/05 08:55:07;;;;;;;0.88;0.88;;;;;;;;;;5089581;28;20226;-59
2023/06/05 08:57:37;;;;;;;0.80;0.80;;;;;;;;;;5089229;28;20389;-61
2023/06/05 09:00:07;;;;;;;0.93;0.77;;;;;;;;;;5083924;28;20245;-59
2023/06/05 09:02:37;;;;;;;0.85;0.85;;;;;;;;;;5086607;28;20206;-59
2023/06/05 09:05:04;;;;;;;0.70;0.70;;;;;;;;;;5087814;28;20210;-59
2023/06/05 09:07:34;;;;;;;0.95;0.95;;;;;;;;;;5088563;28;20576;-59
2023/06/05 09:10:01;;;;;;;0.70;0.70;;;;;;;;;;5093297;28;20209;-59
2023/06/05 09:12:28;;;;;;;1.10;1.10;;;;;;;;;;5095287;28;20210;-59
2023/06/05 09:14:55;;;;;;;0.90;0.90;;;;;;;;;;5086600;28;20234;-59
2023/06/05 09:17:23;;;;;;;0.95;0.95;;;;;;;;;;5088353;28;20209;-59
2023/06/05 09:19:50;;;;;;;1.67;0.73;;;;;;;;;;5088574;28;20541;-59
2023/06/05 09:22:17;;;;;;;1.75;1.02;;;;;;;;;;5088618;28;20297;-59
2023/06/05 09:24:57;;;;;;;1.55;1.23;;;;;;;;;;5088593;28;20213;-59
2023/06/05 09:27:24;;;;;;;1.65;1.15;;;;;;;;;;5088422;28;20596;-59
2023/06/05 09:30:02;;;;;;;0.90;0.90;;;;;;;;;;5088328;28;20317;-59
2023/06/05 09:32:30;;;;;;;0.95;0.95;;;;;;;;;;5088152;28;20267;-59
2023/06/05 09:35:00;;;;;;;0.98;0.98;;;;;;;;;;5087741;28;20226;-59
2023/06/05 09:37:35;;;;;;;1.00;1.00;;;;;;;;;;5088204;28;20210;-59
2023/06/05 09:40:04;;;;;;;1.08;1.08;;;;;;;;;;5093325;28;20266;-61
2023/06/05 09:42:34;;;;;;;0.85;0.85;;;;;;;;;;5094251;28;20679;-59
2023/06/05 09:45:02;;;;;;;1.95;1.08;;;;;;;;;;5087968;28;20206;-59
2023/06/05 09:47:29;;;;;;;0.90;0.90;;;;;;;;;;5087866;28;20210;-59
2023/06/05 09:49:57;;;;;;;0.95;0.88;;;;;;;;;;5087582;28;20580;-59
2023/06/05 09:52:24;;;;;;;0.70;0.70;;;;;;;;;;5087760;28;20206;-59
2023/06/05 09:54:52;;;;;;;1.50;1.00;;;;;;;;;;5087658;28;20233;-59
2023/06/05 09:57:20;;;;;;;1.02;1.02;;;;;;;;;;5087828;28;20288;-59
2023/06/05 09:59:51;;;;;;;2.88;1.13;;;;;;;;;;5087744;28;20206;-60
2023/06/05 10:02:19;;;;;;;0.80;0.80;;;;;;;;;;5087837;28;20681;-59
2023/06/05 10:04:47;;;;;;;0.90;0.90;;;;;;;;;;5087887;28;20296;-59
2023/06/05 10:07:15;;;;;;;0.60;0.60;;;;;;;;;;5087524;28;20242;-59
2023/06/05 10:09:42;;;;;;;1.00;1.00;;;;;;;;;;5089875;28;20206;-59
2023/06/05 10:12:09;;;;;;;2.05;0.82;;;;;;;;;;5097296;28;20236;-59
2023/06/05 10:14:38;;;;;;;0.70;0.70;;;;;;;;;;5087508;28;20230;-59
2023/06/05 10:17:05;;;;;;;0.90;0.90;;;;;;;;;;5087579;28;20214;-59
2023/06/05 10:19:32;;;;;;;0.77;0.77;;;;;;;;;;5087111;28;20668;-59
2023/06/05 10:21:59;;;;;;;0.60;0.60;;;;;;;;;;5086653;28;20233;-59
2023/06/05 10:24:28;;;;;;;1.17;1.08;;;;;;;;;;5087516;28;20263;-59
2023/06/05 10:27:06;;;;;;;1.08;1.02;;;;;;;;;;5087547;28;20217;-59
2023/06/05 10:29:52;;;;;;;0.70;0.70;;;;;;;;;;5087455;28;20202;-59
2023/06/05 10:32:24;;;;;;;0.90;0.90;;;;;;;;;;5087674;28;20268;-59
2023/06/05 10:34:56;;;;;;;1.10;1.10;;;;;;;;;;5087060;28;20234;-59
2023/06/05 10:37:31;;;;;;;0.80;0.80;;;;;;;;;;5087087;28;20208;-60
2023/06/05 10:39:58;;;;;;;1.02;1.02;;;;;;;;;;5091508;28;20221;-59
2023/06/05 10:42:26;;;;;;;1.10;1.10;;;;;;;;;;5094176;28;20303;-59
2023/06/05 10:44:55;;;;;;;0.98;0.98;;;;;;;;;;5087080;28;20677;-59
2023/06/05 10:47:42;;;;;;;0.93;0.93;;;;;;;;;;5086895;28;20214;-59
2023/06/05 10:50:24;;;;;;;0.90;0.90;;;;;;;;;;5086849;28;20457;-59
2023/06/05 10:52:52;;;;;;;3.53;0.77;;;;;;;;;;5087039;28;20206;-59
2023/06/05 10:55:20;;;;;;;0.80;0.80;;;;;;;;;;5086792;28;20336;-59
2023/06/05 10:58:01;;;;;;;0.80;0.80;;;;;;;;;;5086772;28;20297;-59
2023/06/05 11:00:30;;;;;;;0.70;0.70;;;;;;;;;;5082774;28;20631;-59
2023/06/05 11:02:57;;;;;;;1.20;0.98;;;;;;;;;;5082307;28;20617;-59
2023/06/05 11:05:24;;;;;;;0.70;0.70;;;;;;;;;;5083166;28;20199;-59
2023/06/05 11:08:11;;;;;;;1.20;1.00;;;;;;;;;;5073227;28;20207;-59
2023/06/05 11:10:38;;;;;;;0.88;0.88;;;;;;;;;;5086903;28;20214;-59
2023/06/05 11:13:05;;;;;;;0.95;0.70;;;;;;;;;;5086801;28;20210;-59
2023/06/05 11:15:43;;;;;;;0.80;0.80;;;;;;;;;;5086828;28;20230;-59
2023/06/05 11:18:27;;;;;;;0.93;0.68;;;;;;;;;;5086711;28;20218;-59
2023/06/05 11:20:55;;;;;;;0.80;0.80;;;;;;;;;;5083931;28;20226;-59
2023/06/05 11:23:27;;;;;;;2.47;1.30;;;;;;;;;;5086623;28;20684;-59
2023/06/05 11:25:56;;;;;;;1.00;0.98;;;;;;;;;;5086960;28;20208;-59
2023/06/05 11:28:47;;;;;;;1.08;1.00;;;;;;;;;;5086782;28;20241;-59
2023/06/05 11:31:29;;;;;;;0.88;0.88;;;;;;;;;;5071219;28;20210;-58
2023/06/05 11:33:56;;;;;;;0.85;0.80;;;;;;;;;;5090114;28;20226;-58
2023/06/05 11:36:25;;;;;;;2.67;1.00;;;;;;;;;;5090360;28;20254;-58
2023/06/05 11:38:55;;;;;;;0.93;0.93;;;;;;;;;;5091187;28;20210;-59
2023/06/05 11:41:24;;;;;;;1.30;1.10;;;;;;;;;;5103235;28;20210;-59
2023/06/05 11:43:51;;;;;;;0.77;0.77;;;;;;;;;;5089020;28;20256;-59
2023/06/05 11:46:20;;;;;;;0.90;0.90;;;;;;;;;;5090685;28;20205;-58
2023/06/05 11:48:47;;;;;;;1.75;1.00;;;;;;;;;;5090744;28;20211;-59
2023/06/05 11:51:15;;;;;;;1.10;1.05;;;;;;;;;;5090002;28;20315;-58
2023/06/05 11:53:47;;;;;;;0.85;0.85;;;;;;;;;;5090140;28;20297;-59
2023/06/05 11:56:16;;;;;;;0.88;0.88;;;;;;;;;;5090294;28;20230;-59
2023/06/05 11:58:44;;;;;;;5.10;0.98;;;;;;;;;;5090210;28;20217;-59
2023/06/05 12:01:14;;;;;;;0.80;0.80;;;;;;;;;;5090165;28;20216;-59
2023/06/05 12:03:43;;;;;;;0.80;0.80;;;;;;;;;;5089910;28;20206;-58
2023/06/05 12:06:12;;;;;;;0.70;0.70;;;;;;;;;;5089582;28;20309;-58
2023/06/05 12:08:39;;;;;;;0.95;0.95;;;;;;;;;;5090115;28;20290;-60
2023/06/05 12:11:21;;;;;;;0.90;0.90;;;;;;;;;;5101737;28;20213;-60
2023/06/05 12:13:49;;;;;;;1.50;1.20;;;;;;;;;;5090117;28;20730;-58
2023/06/05 12:16:16;;;;;;;3.22;0.95;;;;;;;;;;5089719;28;20336;-59
2023/06/05 12:18:45;;;;;;;0.73;0.73;;;;;;;;;;5089701;28;20293;-58
2023/06/05 12:21:24;;;;;;;0.82;0.82;;;;;;;;;;5089166;28;20283;-58
2023/06/05 12:23:52;;;;;;;3.70;0.90;;;;;;;;;;5090116;28;20206;-59
2023/06/05 12:26:19;;;;;;;1.05;1.05;;;;;;;;;;5089750;28;20649;-58
2023/06/05 12:28:47;;;;;;;1.05;1.02;;;;;;;;;;5089533;28;20435;-59
2023/06/05 12:31:32;;;;;;;4.05;1.38;;;;;;;;;;5089428;28;20206;-58
2023/06/05 12:34:01;;;;;;;1.08;1.08;;;;;;;;;;5089243;28;20214;-59
2023/06/05 12:36:29;;;;;;;9.82;0.93;;;;;;;;;;5089031;28;20223;-59
2023/06/05 12:38:56;;;;;;;1.20;1.20;;;;;;;;;;5089575;28;20297;-59
2023/06/05 12:41:23;;;;;;;0.95;0.95;;;;;;;;;;5101603;28;20641;-59
2023/06/05 12:44:00;;;;;;;2.65;1.08;;;;;;;;;;5088565;28;20464;-59
2023/06/05 12:46:27;;;;;;;1.88;1.77;;;;;;;;;;5089179;28;20731;-59
2023/06/05 12:48:55;;;;;;;1.02;1.02;;;;;;;;;;5089268;28;20209;-59
2023/06/05 12:51:23;;;;;;;1.20;1.10;;;;;;;;;;5088734;28;20206;-59
2023/06/05 12:53:50;;;;;;;2.70;1.20;;;;;;;;;;5089085;28;20222;-59
2023/06/05 12:56:17;;;;;;;0.85;0.85;;;;;;;;;;5089085;28;20226;-59
2023/06/05 12:58:44;;;;;;;0.73;0.73;;;;;;;;;;5088990;28;20579;-59
2023/06/05 13:01:11;;;;;;;0.90;0.90;;;;;;;;;;5088942;28;20214;-60
2023/06/05 13:03:38;;;;;;;0.98;0.98;;;;;;;;;;5088979;28;20237;-59
2023/06/05 13:06:06;;;;;;;1.05;1.02;;;;;;;;;;5088253;28;20210;-59
2023/06/05 13:08:34;;;;;;;13.80;6.65;;;;;;;;;;5088812;28;20233;-59
2023/06/05 13:11:01;;;;;;;0.82;0.82;;;;;;;;;;5093858;28;20309;-59
2023/06/05 13:13:29;;;;;;;4.60;1.20;;;;;;;;;;5081735;28;20211;-60
2023/06/05 13:15:56;;;;;;;0.80;0.80;;;;;;;;;;5087181;28;20234;-60
2023/06/05 13:18:23;;;;;;;0.80;0.80;;;;;;;;;;5084175;28;20264;-61
2023/06/05 13:20:50;;;;;;;1.08;0.90;;;;;;;;;;5087545;28;20234;-59
2023/06/05 13:23:17;;;;;;;1.08;0.90;;;;;;;;;;5087350;28;20213;-61
2023/06/05 13:25:45;;;;;;;0.93;0.70;;;;;;;;;;5088650;28;20263;-61
2023/06/05 13:28:12;;;;;;;1.13;1.02;;;;;;;;;;5088035;28;20210;-60
2023/06/05 13:30:39;;;;;;;1.00;1.00;;;;;;;;;;5068493;28;20281;-59
2023/06/05 13:33:06;;;;;;;0.90;0.90;;;;;;;;;;5078744;28;20548;-58
2023/06/05 13:35:33;;;;;;;0.70;0.70;;;;;;;;;;5083897;28;20616;-59
2023/06/05 13:38:00;;;;;;;0.80;0.80;;;;;;;;;;5068273;28;20210;-59
2023/06/05 13:40:27;;;;;;;0.70;0.70;;;;;;;;;;5084082;28;20214;-59
2023/06/05 13:42:56;;;;;;;0.73;0.73;;;;;;;;;;5088401;28;20291;-59
2023/06/05 13:45:23;;;;;;;1.20;0.75;;;;;;;;;;5088441;28;20203;-58
2023/06/05 13:47:51;;;;;;;3.60;0.93;;;;;;;;;;5085425;28;20233;-59
2023/06/05 13:50:18;;;;;;;1.27;0.80;;;;;;;;;;5086701;28;20233;-62
2023/06/05 13:52:47;;;;;;;1.35;0.80;;;;;;;;;;5077213;28;20207;-60
2023/06/05 13:55:14;;;;;;;0.80;0.80;;;;;;;;;;5085572;28;20721;-60
2023/06/05 13:57:41;;;;;;;0.85;0.85;;;;;;;;;;5084529;28;20276;-60
2023/06/05 14:00:11;;;;;;;0.98;0.90;;;;;;;;;;5085388;28;20213;-63
2023/06/05 14:02:39;;;;;;;0.75;0.75;;;;;;;;;;5085605;28;20575;-60
2023/06/05 14:05:07;;;;;;;1.10;1.10;;;;;;;;;;5087067;28;20221;-60
2023/06/05 14:07:34;;;;;;;1.48;0.85;;;;;;;;;;5079083;28;20577;-61
2023/06/05 14:10:01;;;;;;;0.65;0.65;;;;;;;;;;5088605;28;20198;-60
2023/06/05 14:12:28;;;;;;;1.10;1.10;;;;;;;;;;5094774;28;20525;-60
2023/06/05 14:14:56;;;;;;;0.80;0.80;;;;;;;;;;5078902;28;20207;-60
2023/06/05 14:17:24;;;;;;;0.88;0.88;;;;;;;;;;5087332;28;20230;-59
2023/06/05 14:19:51;;;;;;;1.00;1.00;;;;;;;;;;5078512;28;20209;-64
2023/06/05 14:22:18;;;;;;;0.85;0.85;;;;;;;;;;5080808;28;20272;-61
2023/06/05 14:24:45;;;;;;;3.42;2.65;;;;;;;;;;5087033;28;20749;-60
2023/06/05 14:27:13;;;;;;;1.83;1.58;;;;;;;;;;5086085;28;20198;-65
2023/06/05 14:29:40;;;;;;;0.70;0.70;;;;;;;;;;5085526;28;20476;-58
2023/06/05 14:32:07;;;;;;;3.72;1.13;;;;;;;;;;5084393;28;20205;-63
2023/06/05 14:34:36;;;;;;;1.13;1.10;;;;;;;;;;5079471;28;20218;-58
2023/06/05 14:37:03;;;;;;;1.02;0.75;;;;;;;;;;5085922;28;20611;-59
2023/06/05 14:39:30;;;;;;;0.70;0.70;;;;;;;;;;5084378;28;20217;-59
2023/06/05 14:41:57;;;;;;;1.17;1.17;;;;;;;;;;5086046;28;20591;-60
2023/06/05 14:44:24;;;;;;;1.85;0.73;;;;;;;;;;5085696;28;20214;-59
2023/06/05 14:46:51;;;;;;;3.15;1.50;;;;;;;;;;5087101;28;20218;-59
2023/06/05 14:49:19;;;;;;;0.75;0.75;;;;;;;;;;5087134;28;20210;-59
2023/06/05 14:51:47;;;;;;;0.85;0.85;;;;;;;;;;5086998;28;20290;-59